Time;durP1;ratioP1;P1;durP2;ratioP2;P2;SDS_P1;SDS_P2;PMS_P1;PMS_P2;Temp;Humidity;BMP_temperature;BMP_pressure;BME280_temperature;BME280_humidity;BME280_pressure;Samples;Min_cycle;Max_cycle;Signal;HPM_P1;HPM_P2
2020/12/09 00:01:59;;;;;;;35.28;20.40;;;0.40;99.90;;;1.15;95.09;99833.25;4954473;29;20037;-82
2020/12/09 00:04:25;;;;;;;42.03;21.10;;;0.40;99.90;;;1.07;94.82;99840.31;4955108;29;20039;-81
2020/12/09 00:06:52;;;;;;;37.55;20.58;;;0.30;99.90;;;1.01;94.85;99839.66;4956217;29;20051;-81
2020/12/09 00:09:20;;;;;;;33.70;20.52;;;0.30;99.90;;;0.97;94.68;99851.59;4956449;29;20031;-80
2020/12/09 00:11:47;;;;;;;37.42;21.92;;;0.20;99.90;;;0.92;94.99;99838.78;4954947;29;20090;-81
2020/12/09 00:14:13;;;;;;;35.67;20.17;;;0.20;99.90;;;0.90;94.99;99835.53;4940136;29;20039;-81
2020/12/09 00:16:39;;;;;;;36.33;20.70;;;0.20;99.90;;;0.90;95.23;99845.75;4960435;29;20035;-82
2020/12/09 00:19:06;;;;;;;39.08;21.05;;;0.20;99.90;;;0.89;95.01;99836.69;4958872;29;20126;-80
2020/12/09 00:21:35;;;;;;;34.03;18.52;;;0.20;99.90;;;0.79;94.77;99844.34;4958447;29;20031;-81
2020/12/09 00:24:04;;;;;;;36.35;20.38;;;0.00;99.90;;;0.78;95.15;99839.97;4942658;29;20042;-80
2020/12/09 00:26:34;;;;;;;39.55;21.45;;;0.10;99.90;;;0.82;95.06;99830.00;4959879;29;20023;-80
2020/12/09 00:29:01;;;;;;;35.75;21.45;;;0.10;99.90;;;0.82;94.92;99847.28;4959839;29;20082;-80
2020/12/09 00:31:31;;;;;;;36.90;20.48;;;0.10;99.90;;;0.79;95.16;99845.16;4958792;29;20474;-81
2020/12/09 00:34:00;;;;;;;42.38;20.33;;;0.10;99.90;;;0.73;95.04;99840.13;4959503;29;20113;-82
2020/12/09 00:36:26;;;;;;;38.70;20.85;;;0.00;99.90;;;0.67;95.23;99842.19;4958626;29;20127;-81
2020/12/09 00:38:54;;;;;;;38.92;20.90;;;-0.10;99.90;;;0.67;95.31;99846.88;4958044;29;20031;-81
2020/12/09 00:41:25;;;;;;;38.67;21.13;;;-0.10;99.90;;;0.65;95.46;99838.91;4958452;29;20511;-81
2020/12/09 00:43:52;;;;;;;39.08;21.38;;;-0.10;99.90;;;0.63;95.35;99834.88;4958385;29;20046;-80
2020/12/09 00:46:23;;;;;;;35.85;21.27;;;-0.10;99.90;;;0.63;95.22;99829.38;4941604;29;20035;-82
2020/12/09 00:48:50;;;;;;;36.35;19.95;;;-0.10;99.90;;;0.63;95.46;99827.44;4958177;29;20074;-80
2020/12/09 00:51:19;;;;;;;39.60;22.52;;;-0.10;99.90;;;0.67;95.39;99824.88;4957563;29;20042;-83
2020/12/09 00:53:47;;;;;;;43.88;23.92;;;-0.10;99.90;;;0.68;95.76;99830.03;4941266;29;20050;-80
2020/12/09 00:56:13;;;;;;;39.65;20.88;;;-0.10;99.90;;;0.70;95.51;99827.00;4957456;29;20039;-83
2020/12/09 00:58:40;;;;;;;43.10;23.13;;;-0.10;99.90;;;0.66;95.54;99834.25;4959193;29;20039;-80
2020/12/09 01:01:09;;;;;;;40.22;22.20;;;-0.10;99.90;;;0.62;95.98;99838.72;4957619;29;20066;-81
2020/12/09 01:03:35;;;;;;;49.35;24.65;;;-0.10;99.90;;;0.60;96.19;99840.97;4941251;29;20586;-82
2020/12/09 01:06:06;;;;;;;46.35;23.70;;;-0.10;99.90;;;0.69;96.17;99855.59;4957280;29;20063;-83
2020/12/09 01:08:35;;;;;;;47.03;23.42;;;-0.10;99.90;;;0.72;96.12;99853.03;4957840;29;20041;-84
2020/12/09 01:11:02;;;;;;;45.20;23.27;;;0.00;99.90;;;0.77;95.88;99852.91;4957217;29;20035;-83
2020/12/09 01:13:28;;;;;;;42.33;23.00;;;0.00;99.90;;;0.83;96.02;99870.09;4957377;29;20130;-81
2020/12/09 01:15:54;;;;;;;42.53;21.88;;;0.10;99.90;;;0.88;96.33;99853.47;4957231;29;20114;-81
2020/12/09 01:18:20;;;;;;;41.10;23.05;;;0.10;99.90;;;0.94;95.96;99864.03;4956989;29;20031;-81
2020/12/09 01:20:46;;;;;;;38.90;20.60;;;0.20;99.90;;;0.92;95.55;99871.78;4957341;29;20035;-82
2020/12/09 01:23:14;;;;;;;38.65;19.60;;;0.10;99.90;;;0.86;95.46;99874.97;4958265;29;20133;-81
2020/12/09 01:25:40;;;;;;;42.35;20.83;;;0.10;99.90;;;0.81;95.78;99878.66;4955853;28;20031;-81
2020/12/09 01:28:06;;;;;;;42.30;23.65;;;0.00;99.90;;;0.83;95.53;99879.16;4957306;29;20039;-79
2020/12/09 01:30:33;;;;;;;35.20;20.20;;;0.00;99.90;;;0.85;95.96;99892.59;4958593;29;20110;-81
2020/12/09 01:32:59;;;;;;;39.05;21.08;;;0.10;99.90;;;0.84;95.67;99888.19;4957270;29;20035;-80
2020/12/09 01:35:26;;;;;;;43.20;22.33;;;0.10;99.90;;;0.87;95.74;99887.56;4957100;29;20042;-80
2020/12/09 01:37:53;;;;;;;44.53;23.00;;;0.10;99.90;;;0.89;95.73;99877.09;4940932;29;20628;-81
2020/12/09 01:40:20;;;;;;;39.58;21.17;;;0.10;99.90;;;0.89;95.85;99880.66;4993509;23;20051;-77
2020/12/09 01:42:49;;;;;;;43.58;22.80;;;0.10;99.90;;;0.85;95.70;99870.59;4996342;28;20066;-78
2020/12/09 01:45:16;;;;;;;39.30;20.83;;;0.10;99.90;;;0.84;95.63;99868.97;4997704;28;20034;-78
2020/12/09 01:47:46;;;;;;;40.17;20.70;;;0.10;99.90;;;0.78;95.44;99872.97;4997374;28;20030;-81
2020/12/09 01:50:14;;;;;;;40.03;21.50;;;0.00;99.90;;;0.75;95.89;99873.59;4997647;28;20482;-77
2020/12/09 01:52:40;;;;;;;37.13;19.98;;;0.00;99.90;;;0.73;95.64;99870.34;4997752;28;20045;-78
2020/12/09 01:55:08;;;;;;;43.83;21.95;;;0.00;99.90;;;0.67;95.53;99871.59;4998147;28;20034;-80
2020/12/09 01:57:35;;;;;;;34.78;19.55;;;-0.10;99.90;;;0.64;95.42;99873.03;4998816;28;20162;-80
2020/12/09 02:00:01;;;;;;;34.25;19.73;;;-0.10;99.90;;;0.56;95.32;99865.53;4998214;28;20037;-80
2020/12/09 02:02:27;;;;;;;36.03;19.63;;;-0.20;99.90;;;0.55;95.60;99863.09;5001023;28;20057;-79
2020/12/09 02:04:54;;;;;;;37.75;19.80;;;-0.20;99.90;;;0.59;95.91;99869.56;5011421;28;20023;-80
2020/12/09 02:07:27;;;;;;;35.05;19.33;;;-0.20;99.90;;;0.55;95.58;99871.34;5010827;28;20030;-79
2020/12/09 02:10:03;;;;;;;39.60;20.70;;;-0.20;99.90;;;0.52;95.85;99872.75;5006763;28;20030;-80
2020/12/09 02:12:33;;;;;;;35.58;20.05;;;-0.30;99.90;;;0.52;95.77;99870.00;4980427;28;20026;-78
2020/12/09 02:15:01;;;;;;;42.00;21.90;;;-0.20;99.90;;;0.51;95.89;99877.44;4997737;28;20022;-79
2020/12/09 02:17:27;;;;;;;43.00;22.83;;;-0.20;99.90;;;0.52;95.83;99873.56;4980165;28;20030;-79
2020/12/09 02:19:53;;;;;;;43.13;22.50;;;-0.20;99.90;;;0.56;96.04;99879.25;4996658;28;20092;-78
2020/12/09 02:22:19;;;;;;;44.38;23.42;;;-0.20;99.90;;;0.65;96.19;99882.06;4996925;28;20028;-77
2020/12/09 02:24:45;;;;;;;42.15;21.35;;;-0.10;99.90;;;0.69;96.12;99889.41;4979459;28;20486;-77
2020/12/09 02:27:11;;;;;;;44.53;21.88;;;-0.10;99.90;;;0.67;96.02;99877.09;4996827;28;20464;-79
2020/12/09 02:29:41;;;;;;;40.03;20.20;;;-0.10;99.90;;;0.67;96.06;99879.84;4996749;28;20029;-78
2020/12/09 02:32:07;;;;;;;42.38;21.48;;;-0.10;99.90;;;0.70;95.92;99892.97;4996645;28;20041;-80
2020/12/09 02:34:33;;;;;;;45.17;21.60;;;-0.10;99.90;;;0.72;96.16;99882.47;4995750;28;20038;-78
2020/12/09 02:36:59;;;;;;;40.03;20.95;;;-0.10;99.90;;;0.83;96.16;99895.66;4996698;28;20089;-78
2020/12/09 02:39:37;;;;;;;47.20;23.13;;;0.00;99.90;;;0.92;95.98;99887.47;4996662;28;20039;-78
2020/12/09 02:42:06;;;;;;;39.53;21.17;;;0.10;99.90;;;0.95;95.88;99889.59;4996542;28;20064;-77
2020/12/09 02:44:32;;;;;;;41.28;20.85;;;0.10;99.90;;;0.94;95.45;99879.72;4993868;28;20041;-78
2020/12/09 02:46:58;;;;;;;44.88;21.55;;;0.10;99.90;;;0.95;95.72;99892.34;4994234;28;20113;-79
2020/12/09 02:49:25;;;;;;;44.45;21.73;;;0.20;99.90;;;0.94;95.85;99891.53;4977348;28;20472;-77
2020/12/09 02:51:52;;;;;;;37.88;20.48;;;0.20;99.90;;;0.99;95.53;99882.34;4995190;28;20038;-78
2020/12/09 02:54:19;;;;;;;36.38;19.30;;;0.20;99.90;;;0.93;95.54;99886.34;4993809;28;20069;-77
2020/12/09 02:56:45;;;;;;;36.80;19.63;;;0.10;99.90;;;0.84;95.59;99888.19;4994709;28;20146;-77
2020/12/09 02:59:11;;;;;;;44.00;22.35;;;0.10;99.90;;;0.80;95.67;99888.03;4994767;28;20318;-77
2020/12/09 03:01:38;;;;;;;46.15;24.33;;;0.10;99.90;;;0.85;95.91;99893.41;4994577;28;20085;-79
2020/12/09 03:04:03;;;;;;;46.22;23.73;;;0.10;99.90;;;0.94;96.21;99885.22;4994364;28;20089;-80
2020/12/09 03:06:32;;;;;;;53.53;24.42;;;0.20;99.90;;;1.06;96.20;99882.69;4994676;28;20030;-78
2020/12/09 03:08:58;;;;;;;50.22;26.20;;;0.30;99.90;;;1.17;96.48;99889.56;4993337;28;20070;-80
2020/12/09 03:11:24;;;;;;;50.28;25.10;;;0.40;99.90;;;1.28;96.32;99890.94;4977011;28;20041;-80
2020/12/09 03:13:50;;;;;;;51.58;24.73;;;0.50;99.90;;;1.34;95.96;99891.63;4994128;28;20045;-79
2020/12/09 03:16:16;;;;;;;47.67;24.10;;;0.50;99.90;;;1.43;96.01;99895.22;4977195;28;20061;-81
2020/12/09 03:18:42;;;;;;;44.08;22.63;;;0.60;99.90;;;1.48;95.83;99887.63;4994963;28;20532;-78
2020/12/09 03:21:11;;;;;;;50.13;23.80;;;0.60;99.90;;;1.52;96.13;99887.81;4994187;28;20027;-79
2020/12/09 03:23:38;;;;;;;46.15;24.52;;;0.70;99.90;;;1.57;95.75;99882.97;4994386;28;20038;-78
2020/12/09 03:26:05;;;;;;;46.58;23.30;;;0.70;99.90;;;1.58;96.05;99889.28;4994659;28;20046;-80
2020/12/09 03:28:35;;;;;;;43.85;22.90;;;0.70;99.90;;;1.61;95.92;99885.91;4994511;28;20177;-81
2020/12/09 03:31:06;;;;;;;40.53;21.95;;;0.80;99.90;;;1.64;96.02;99892.75;5000862;28;20058;-78
2020/12/09 03:33:33;;;;;;;41.63;21.73;;;0.80;99.90;;;1.65;95.72;99908.09;4981339;28;20462;-79
2020/12/09 03:35:59;;;;;;;40.25;21.27;;;0.80;99.90;;;1.67;95.52;99900.38;4994249;28;20081;-77
2020/12/09 03:38:25;;;;;;;41.72;22.60;;;0.80;99.90;;;1.65;96.00;99899.84;4994802;28;20045;-78
2020/12/09 03:40:51;;;;;;;40.72;23.02;;;0.80;99.90;;;1.67;95.65;99901.16;4994061;28;20042;-78
2020/12/09 03:43:17;;;;;;;40.78;23.00;;;0.90;99.90;;;1.69;95.85;99906.34;4994195;28;20042;-80
2020/12/09 03:45:43;;;;;;;44.35;23.60;;;0.90;99.90;;;1.74;95.79;99897.94;4994145;28;20034;-79
2020/12/09 03:48:10;;;;;;;44.75;22.75;;;0.90;99.90;;;1.78;95.98;99897.00;4995637;28;20041;-78
2020/12/09 03:50:36;;;;;;;45.55;23.58;;;0.90;99.90;;;1.80;95.99;99896.69;4998188;28;20037;-79
2020/12/09 03:53:02;;;;;;;48.17;23.45;;;1.00;99.90;;;1.89;95.64;99897.53;4997005;28;20045;-78
2020/12/09 03:55:28;;;;;;;48.97;24.65;;;1.10;99.90;;;1.91;96.13;99904.34;4998206;28;20034;-79
2020/12/09 03:57:58;;;;;;;51.17;24.38;;;1.10;99.90;;;1.98;95.76;99901.13;5000521;28;20094;-79
2020/12/09 04:00:28;;;;;;;54.63;25.08;;;1.20;99.90;;;2.05;95.82;99906.97;5001685;28;20114;-81
2020/12/09 04:02:55;;;;;;;50.85;25.67;;;1.20;99.90;;;2.09;95.79;99906.00;5002492;28;20537;-78
2020/12/09 04:05:21;;;;;;;52.13;24.90;;;1.30;99.90;;;2.16;95.89;99907.47;5000515;28;20031;-80
2020/12/09 04:07:47;;;;;;;49.97;24.70;;;1.40;99.90;;;2.23;96.15;99905.06;4999567;28;20046;-78
2020/12/09 04:10:13;;;;;;;49.17;23.88;;;1.40;99.90;;;2.29;96.20;99923.06;5000133;28;20026;-78
2020/12/09 04:12:39;;;;;;;47.15;24.92;;;1.50;99.90;;;2.34;96.25;99917.44;5000373;28;20086;-78
2020/12/09 04:15:05;;;;;;;48.25;24.70;;;1.50;99.90;;;2.34;96.07;99915.50;4997732;28;20034;-80
2020/12/09 04:17:31;;;;;;;53.22;26.08;;;1.50;99.90;;;2.39;95.79;99920.84;4999505;28;20045;-78
2020/12/09 04:19:57;;;;;;;49.22;24.40;;;1.60;99.90;;;2.42;95.98;99919.38;4997460;28;20031;-78
2020/12/09 04:22:23;;;;;;;54.22;25.52;;;1.60;99.90;;;2.47;96.26;99927.50;4979930;28;20045;-79
2020/12/09 04:24:49;;;;;;;44.90;22.48;;;1.60;99.90;;;2.50;96.15;99924.91;4999068;28;20030;-80
2020/12/09 04:27:18;;;;;;;44.05;23.45;;;1.60;99.90;;;2.47;96.17;99924.75;4999272;28;20032;-79
2020/12/09 04:29:43;;;;;;;44.63;22.52;;;1.60;99.90;;;2.46;96.21;99923.94;4999583;28;20053;-79
2020/12/09 04:32:10;;;;;;;50.42;26.02;;;1.60;99.90;;;2.46;95.92;99931.38;5000226;28;20030;-79
2020/12/09 04:34:36;;;;;;;53.47;24.33;;;1.60;99.90;;;2.39;96.05;99928.28;4982949;28;20036;-79
2020/12/09 04:37:04;;;;;;;42.80;22.08;;;1.60;99.90;;;2.35;96.29;99932.81;4980483;28;20114;-78
2020/12/09 04:39:31;;;;;;;43.58;22.23;;;1.60;99.90;;;2.37;95.95;99936.06;4998003;28;20030;-78
2020/12/09 04:41:57;;;;;;;48.63;25.65;;;1.60;99.90;;;2.41;96.16;99937.84;4980615;28;20030;-80
2020/12/09 04:44:24;;;;;;;50.55;25.77;;;1.60;99.90;;;2.44;96.20;99939.19;4997354;28;20113;-79
2020/12/09 04:46:53;;;;;;;49.55;25.73;;;1.60;99.90;;;2.48;96.48;99935.44;4997587;28;20430;-81
2020/12/09 04:49:24;;;;;;;50.55;25.33;;;1.60;99.90;;;2.54;96.25;99942.41;4980228;28;20037;-79
2020/12/09 04:52:39;;;;;;;50.20;24.40;;;1.70;99.90;;;2.57;96.22;99939.00;4995952;28;20026;-78
2020/12/09 04:55:10;;;;;;;44.83;23.80;;;1.70;99.90;;;2.60;96.41;99943.09;4996989;28;20042;-79
2020/12/09 04:58:02;;;;;;;49.88;24.92;;;1.70;99.90;;;2.63;96.13;99946.00;4996621;28;20026;-80
2020/12/09 05:00:30;;;;;;;48.92;24.42;;;1.70;99.90;;;2.67;96.61;99954.44;4996788;28;20038;-79
2020/12/09 05:03:19;;;;;;;50.25;27.55;;;1.80;99.90;;;2.71;96.44;99946.31;4995291;28;20081;-78
2020/12/09 05:05:47;;;;;;;55.50;27.65;;;1.80;99.90;;;2.75;96.77;99944.56;4996610;28;20046;-79
2020/12/09 05:08:21;;;;;;;54.65;25.98;;;1.90;99.90;;;2.78;96.69;99943.91;4997131;28;20029;-80
2020/12/09 05:10:53;;;;;;;56.75;27.05;;;1.90;99.90;;;2.83;96.23;99944.56;4996802;28;20026;-79
2020/12/09 05:13:26;;;;;;;55.40;25.75;;;1.90;99.90;;;2.83;96.50;99952.00;4997040;28;20501;-79
2020/12/09 05:15:58;;;;;;;48.28;23.83;;;2.00;99.90;;;2.85;96.32;99945.06;4997484;28;20170;-79
2020/12/09 05:18:43;;;;;;;49.65;24.15;;;2.00;99.90;;;2.90;96.38;99944.06;4997022;28;20030;-79
2020/12/09 05:21:28;;;;;;;48.72;23.80;;;2.00;99.90;;;2.88;96.09;99951.88;4996966;28;20038;-79
2020/12/09 05:23:58;;;;;;;43.60;23.40;;;2.00;99.90;;;2.90;96.60;99949.59;4996117;28;20030;-80
2020/12/09 05:26:36;;;;;;;42.38;22.38;;;2.10;99.90;;;2.91;96.60;99965.81;4996542;28;20030;-79
2020/12/09 05:29:17;;;;;;;40.17;24.20;;;2.00;99.90;;;2.90;96.58;99960.63;4979381;28;20022;-79
2020/12/09 05:31:48;;;;;;;46.97;22.63;;;2.00;99.90;;;2.86;96.15;99956.91;4996412;28;20027;-79
2020/12/09 05:34:30;;;;;;;46.20;23.88;;;2.00;99.90;;;2.87;96.02;99966.78;4994933;28;20022;-79
2020/12/09 05:37:28;;;;;;;43.35;21.67;;;2.00;99.90;;;2.83;96.13;99974.06;4996573;28;20105;-79
2020/12/09 05:39:55;;;;;;;40.85;21.70;;;1.90;99.90;;;2.78;95.87;99971.47;4954807;28;20046;-79
2020/12/09 05:42:24;;;;;;;40.10;21.65;;;1.90;99.90;;;2.81;96.46;99977.16;5001859;28;20034;-79
2020/12/09 05:44:51;;;;;;;42.22;21.13;;;1.90;99.90;;;2.84;96.20;99982.03;5001139;28;20052;-79
2020/12/09 05:47:20;;;;;;;49.40;24.98;;;2.00;99.90;;;2.86;96.59;99987.25;4993262;28;20034;-78
2020/12/09 05:49:46;;;;;;;55.85;27.20;;;2.00;99.90;;;2.90;96.42;99985.44;4982604;28;20081;-80
2020/12/09 05:52:21;;;;;;;48.58;25.38;;;2.00;99.90;;;2.96;96.24;99987.72;4998820;28;20022;-80
2020/12/09 05:54:53;;;;;;;53.60;26.35;;;2.10;99.90;;;2.99;96.63;99983.50;4980862;28;20117;-78
2020/12/09 05:57:25;;;;;;;48.40;23.90;;;2.10;99.90;;;3.02;95.86;99989.19;4999927;28;20034;-79
2020/12/09 05:59:51;;;;;;;50.88;25.77;;;2.10;99.90;;;3.07;96.40;99991.78;5000068;28;20113;-79
2020/12/09 06:02:27;;;;;;;55.63;26.42;;;2.20;99.90;;;3.10;96.24;99998.59;4997760;28;20034;-80
2020/12/09 06:05:00;;;;;;;51.15;26.48;;;2.20;99.90;;;3.12;96.02;99999.06;4998844;28;20038;-79
2020/12/09 06:07:32;;;;;;;53.20;25.80;;;2.20;99.90;;;3.15;96.10;99996.47;4997804;28;20665;-80
2020/12/09 06:10:24;;;;;;;48.17;25.15;;;2.20;99.90;;;3.17;96.39;99991.47;4998446;28;20505;-79
2020/12/09 06:13:00;;;;;;;51.85;26.77;;;2.30;99.90;;;3.19;96.09;99993.88;4991757;28;20074;-79
2020/12/09 06:15:33;;;;;;;48.95;24.63;;;2.30;99.90;;;3.24;95.90;99999.25;4998352;28;20564;-78
2020/12/09 06:18:13;;;;;;;51.00;26.27;;;2.30;99.90;;;3.23;96.11;100002.34;4980141;28;20120;-79
2020/12/09 06:20:42;;;;;;;46.63;24.65;;;2.30;99.90;;;3.22;96.31;100003.47;4980027;28;20038;-78
2020/12/09 06:23:15;;;;;;;53.22;25.42;;;2.30;99.90;;;3.19;96.30;99997.47;4997817;28;20049;-79
2020/12/09 06:25:44;;;;;;;48.58;23.58;;;2.30;99.90;;;3.21;95.83;99999.09;4980369;28;20026;-79
2020/12/09 06:28:17;;;;;;;56.63;26.95;;;2.30;99.90;;;3.25;95.85;100006.38;4998791;28;20446;-80
2020/12/09 06:30:43;;;;;;;53.50;25.85;;;2.40;99.90;;;3.31;96.02;100013.38;5003594;28;20041;-81
2020/12/09 06:33:10;;;;;;;52.55;25.15;;;2.50;99.90;;;3.31;96.22;100007.84;5004232;28;20117;-81
2020/12/09 06:35:38;;;;;;;50.28;25.23;;;2.40;99.90;;;3.34;96.04;100011.91;5003846;28;20058;-81
2020/12/09 06:38:10;;;;;;;54.55;27.45;;;2.50;99.90;;;3.42;95.64;100016.63;5004328;28;20037;-80
2020/12/09 06:40:57;;;;;;;52.10;27.52;;;2.50;99.90;;;3.39;96.37;100015.31;5003422;28;20039;-80
2020/12/09 06:43:23;;;;;;;55.95;27.20;;;2.50;99.90;;;3.43;95.95;100024.59;5003815;28;20045;-81
2020/12/09 06:46:43;;;;;;;54.90;26.20;;;2.50;99.90;;;3.46;96.32;100025.88;5002645;28;20032;-82
2020/12/09 06:49:29;;;;;;;54.08;26.35;;;2.50;99.90;;;3.47;95.99;100031.06;4996887;28;20026;-80
2020/12/09 06:52:10;;;;;;;52.17;24.35;;;2.50;99.90;;;3.46;95.58;100032.22;4976694;28;20145;-82
2020/12/09 06:54:44;;;;;;;53.83;27.10;;;2.50;99.90;;;3.50;95.89;100035.13;4979419;28;20088;-82
2020/12/09 06:57:38;;;;;;;55.33;26.95;;;2.60;99.90;;;3.51;95.74;100045.84;4995955;28;20421;-83
2020/12/09 07:00:19;;;;;;;54.47;27.15;;;2.60;99.90;;;3.51;95.90;100042.25;4996537;28;20019;-81
2020/12/09 07:02:51;;;;;;;58.78;28.75;;;2.60;99.90;;;3.54;95.82;100038.84;4978415;28;20398;-82
2020/12/09 07:05:25;;;;;;;65.32;29.40;;;2.60;99.90;;;3.57;95.38;100044.53;4996765;28;20486;-82
2020/12/09 07:07:58;;;;;;;67.15;31.52;;;2.60;99.90;;;3.62;95.97;100044.38;4995326;28;20030;-81
2020/12/09 07:10:28;;;;;;;68.00;30.02;;;2.70;99.90;;;3.62;95.40;100046.31;4996176;28;20278;-82
2020/12/09 07:13:08;;;;;;;72.72;33.63;;;2.70;99.90;;;3.66;95.79;100045.31;4998856;28;20105;-82
2020/12/09 07:15:38;;;;;;;67.50;31.52;;;2.70;99.90;;;3.70;95.78;100043.53;4997642;28;20081;-85
2020/12/09 07:18:06;;;;;;;68.28;30.95;;;2.80;99.90;;;3.68;95.89;100040.31;4997522;28;20342;-83
2020/12/09 07:20:34;;;;;;;72.78;34.30;;;2.70;99.90;;;3.68;95.46;100042.25;4997136;28;20027;-83
2020/12/09 07:23:02;;;;;;;73.47;33.70;;;2.80;99.90;;;3.68;95.66;100040.31;4994424;28;20065;-82
2020/12/09 07:25:28;;;;;;;76.90;35.13;;;2.80;99.90;;;3.70;95.63;100031.69;4997118;28;20033;-82
2020/12/09 07:27:55;;;;;;;64.53;31.02;;;2.80;99.90;;;3.73;95.64;100047.59;4998154;28;20128;-81
2020/12/09 07:30:21;;;;;;;64.47;30.05;;;2.80;99.90;;;3.71;95.98;100052.66;5014118;28;20010;-82
2020/12/09 07:32:52;;;;;;;61.17;30.85;;;2.80;99.90;;;3.72;95.50;100057.03;5015904;28;20043;-81
2020/12/09 07:35:19;;;;;;;72.78;33.05;;;2.80;99.90;;;3.71;96.00;100045.19;5016630;28;20041;-81
2020/12/09 07:37:51;;;;;;;72.90;32.58;;;2.80;99.90;;;3.76;96.06;100054.44;5007118;28;20022;-82
2020/12/09 07:40:29;;;;;;;81.05;33.50;;;2.90;99.90;;;3.81;96.32;100048.72;5003056;28;20045;-81
2020/12/09 07:43:02;;;;;;;60.33;29.08;;;2.90;99.90;;;3.80;96.30;100036.03;4995765;28;20654;-84
2020/12/09 07:45:28;;;;;;;64.72;28.02;;;2.90;99.90;;;3.80;95.78;100038.81;4996141;28;20034;-82
2020/12/09 07:48:21;;;;;;;56.03;27.63;;;2.90;99.90;;;3.78;95.82;100041.09;4997358;28;20026;-81
2020/12/09 07:50:52;;;;;;;61.08;28.42;;;2.90;99.90;;;3.69;96.36;100017.06;4981614;28;20200;-81
2020/12/09 07:53:21;;;;;;;67.28;31.75;;;2.90;99.90;;;3.75;96.23;100023.25;5004875;28;20035;-84
2020/12/09 07:55:48;;;;;;;73.05;34.20;;;2.90;99.90;;;3.77;96.10;100042.22;5006119;28;20181;-82
2020/12/09 07:58:17;;;;;;;73.00;33.15;;;2.90;99.90;;;3.77;96.14;100036.72;4988837;28;20191;-81
2020/12/09 08:00:49;;;;;;;73.72;34.35;;;2.90;99.90;;;3.79;95.78;100038.00;4997593;28;20050;-82
2020/12/09 08:03:33;;;;;;;74.85;33.08;;;2.90;99.90;;;3.86;96.08;100034.72;5013492;28;20057;-82
2020/12/09 08:05:59;;;;;;;77.78;33.83;;;3.00;99.90;;;3.82;95.51;100023.53;5004815;28;20022;-81
2020/12/09 08:08:27;;;;;;;69.78;33.92;;;3.00;99.90;;;3.88;95.78;100035.25;5002970;28;20053;-81
2020/12/09 08:10:53;;;;;;;81.05;35.28;;;3.00;99.90;;;3.98;95.66;100041.19;5003988;28;20026;-82
2020/12/09 08:13:25;;;;;;;78.25;33.83;;;3.10;99.90;;;4.01;95.96;100042.53;4986213;28;20034;-80
2020/12/09 08:16:13;;;;;;;79.25;34.63;;;3.10;99.90;;;4.08;95.60;100037.28;5003360;28;20026;-80
2020/12/09 08:18:42;;;;;;;83.15;36.05;;;3.20;99.90;;;4.13;95.39;100034.34;4998417;28;20039;-80
2020/12/09 08:21:10;;;;;;;76.88;35.40;;;3.20;99.90;;;4.18;95.01;100042.44;4995569;28;20030;-82
2020/12/09 08:23:46;;;;;;;69.88;32.97;;;3.30;99.90;;;4.21;95.44;100041.78;4996280;28;20030;-82
2020/12/09 08:26:30;;;;;;;64.20;31.95;;;3.30;99.90;;;4.16;95.19;100036.44;4996379;28;20022;-82
2020/12/09 08:28:57;;;;;;;66.35;30.58;;;3.20;99.90;;;4.10;95.13;100038.59;4997164;28;20033;-82
2020/12/09 08:31:24;;;;;;;68.97;30.90;;;3.20;99.90;;;4.05;94.77;100036.00;4997456;28;20027;-82
2020/12/09 08:33:53;;;;;;;65.50;29.38;;;3.20;99.90;;;4.09;94.83;100045.25;4998579;28;20031;-82
2020/12/09 08:36:21;;;;;;;66.35;33.08;;;3.20;99.90;;;4.12;94.91;100044.59;5000996;28;20093;-80
2020/12/09 08:39:01;;;;;;;69.43;32.45;;;3.20;99.90;;;4.18;94.65;100048.78;5001320;28;20148;-81
2020/12/09 08:41:36;;;;;;;63.72;31.92;;;3.30;99.90;;;4.24;95.20;100049.41;5001529;28;20092;-80
2020/12/09 08:44:07;;;;;;;63.45;30.20;;;3.30;99.90;;;4.28;94.73;100050.38;5001738;28;20037;-82
2020/12/09 08:46:34;;;;;;;64.40;31.02;;;3.30;99.90;;;4.25;94.66;100049.09;4984275;28;20031;-80
2020/12/09 08:49:00;;;;;;;63.72;31.27;;;3.30;99.90;;;4.28;94.38;100046.81;4994784;28;20033;-81
2020/12/09 08:51:34;;;;;;;75.20;34.47;;;3.30;99.90;;;4.33;94.29;100057.69;4999730;28;20061;-80
2020/12/09 08:54:07;;;;;;;64.40;30.60;;;3.40;99.90;;;4.38;94.70;100046.44;4982710;28;20371;-81
2020/12/09 08:56:34;;;;;;;75.95;34.17;;;3.40;99.90;;;4.43;94.69;100057.34;5000600;28;20095;-79
2020/12/09 08:59:01;;;;;;;78.30;35.45;;;3.40;99.90;;;4.34;94.35;100057.34;5000612;28;20053;-82
2020/12/09 09:01:28;;;;;;;77.13;36.67;;;3.50;99.90;;;4.32;93.94;100059.66;5000161;28;20041;-81
2020/12/09 09:03:58;;;;;;;80.95;35.97;;;3.50;99.90;;;4.32;94.29;100051.34;4998781;28;20030;-81
2020/12/09 09:06:24;;;;;;;80.45;36.63;;;3.50;99.90;;;4.43;93.92;100060.09;4999392;28;20022;-80
2020/12/09 09:08:50;;;;;;;85.38;37.33;;;3.50;99.90;;;4.44;93.63;100065.28;4998962;28;20033;-81
2020/12/09 09:11:24;;;;;;;87.28;38.53;;;3.60;99.90;;;4.51;93.65;100073.06;4999166;28;20030;-83
2020/12/09 09:13:53;;;;;;;89.35;39.05;;;3.60;99.90;;;4.52;93.15;100083.00;4998762;28;20441;-83
2020/12/09 09:16:20;;;;;;;100.45;41.30;;;3.60;99.90;;;4.43;93.56;100087.75;4999092;28;20520;-82
2020/12/09 09:18:47;;;;;;;100.15;42.88;;;3.60;99.90;;;4.39;93.31;100092.31;4996751;28;20034;-81
2020/12/09 09:21:13;;;;;;;94.68;41.95;;;3.60;99.90;;;4.39;92.47;100103.38;4997093;28;20494;-82
2020/12/09 09:23:39;;;;;;;90.85;39.47;;;3.60;99.90;;;4.39;92.67;100111.66;4997493;28;20038;-82
2020/12/09 09:26:05;;;;;;;95.40;38.72;;;3.50;99.90;;;4.32;92.77;100106.66;4997651;28;20040;-84
2020/12/09 09:28:31;;;;;;;93.03;40.47;;;3.50;99.90;;;4.35;92.57;100116.22;4980813;28;20023;-82
2020/12/09 09:30:59;;;;;;;85.13;39.13;;;3.50;99.90;;;4.31;92.35;100118.84;4998629;28;20080;-83
2020/12/09 09:33:25;;;;;;;84.45;36.80;;;3.50;99.90;;;4.35;92.30;100114.28;4998520;28;20034;-82
2020/12/09 09:35:51;;;;;;;86.15;38.17;;;3.50;99.90;;;4.30;92.36;100116.41;4981051;28;20391;-82
2020/12/09 09:38:16;;;;;;;93.95;39.65;;;3.50;99.90;;;4.25;92.37;100112.69;4999453;28;20476;-80
2020/12/09 09:40:42;;;;;;;86.72;39.45;;;3.50;99.90;;;4.32;91.63;100116.88;4999507;28;20508;-81
2020/12/09 09:43:08;;;;;;;89.05;38.55;;;3.50;99.90;;;4.27;91.77;100106.00;4999014;28;20037;-81
2020/12/09 09:45:34;;;;;;;92.78;40.30;;;3.60;99.90;;;4.33;92.17;100111.03;4983138;28;20030;-82
2020/12/09 09:48:00;;;;;;;101.15;41.92;;;3.50;99.90;;;4.32;91.60;100108.59;5000649;28;20031;-83
2020/12/09 09:50:26;;;;;;;95.78;40.75;;;3.50;99.90;;;4.32;91.31;100114.94;5001049;28;20018;-83
2020/12/09 09:52:54;;;;;;;98.10;41.50;;;3.50;99.90;;;4.33;91.18;100102.75;5001557;28;20027;-83
2020/12/09 09:55:20;;;;;;;93.00;41.83;;;3.60;99.90;;;4.43;90.68;100107.91;5001141;28;20474;-83
2020/12/09 09:57:46;;;;;;;91.07;40.83;;;3.60;99.90;;;4.52;90.82;100102.34;5002114;28;20033;-83
2020/12/09 10:00:12;;;;;;;86.78;40.08;;;3.70;99.90;;;4.44;90.21;100101.22;5001644;28;20034;-82
2020/12/09 10:02:38;;;;;;;90.43;39.75;;;3.60;99.90;;;4.55;90.61;100091.44;5001323;28;20184;-83
2020/12/09 10:05:04;;;;;;;83.53;39.13;;;3.70;99.90;;;4.57;90.43;100094.69;4984091;28;20022;-83
2020/12/09 10:07:30;;;;;;;99.40;41.40;;;3.70;99.90;;;4.55;89.62;100090.63;4983674;28;20081;-83
2020/12/09 10:09:56;;;;;;;84.95;39.45;;;3.70;99.90;;;4.58;89.42;100095.50;5000734;28;20622;-81
2020/12/09 10:12:21;;;;;;;81.80;40.13;;;3.70;99.90;;;4.58;88.77;100096.31;4983645;28;20053;-82
2020/12/09 10:14:47;;;;;;;81.85;40.38;;;3.70;99.90;;;4.58;89.20;100101.03;5000736;28;20401;-83
2020/12/09 10:17:14;;;;;;;85.68;40.17;;;3.70;99.90;;;4.62;88.88;100090.94;5003854;28;20035;-79
2020/12/09 10:19:41;;;;;;;77.47;37.70;;;3.70;99.90;;;4.73;88.97;100103.22;5014239;28;20038;-80
2020/12/09 10:22:11;;;;;;;74.30;34.90;;;3.80;99.90;;;4.78;89.51;100105.84;5002393;28;20038;-82
2020/12/09 10:24:38;;;;;;;71.00;36.58;;;3.80;99.90;;;4.73;88.57;100114.28;5000005;28;20034;-83
2020/12/09 10:27:04;;;;;;;68.32;34.90;;;3.80;99.90;;;4.71;88.00;100111.06;4998625;28;20030;-82